createdAt,value
2023-01-11T00:01:12.498Z,7.32
2023-01-11T00:03:39.809Z,6.57
2023-01-11T00:06:08.235Z,7.38
2023-01-11T00:08:37.838Z,7.50
2023-01-11T00:11:10.913Z,9.10
2023-01-11T00:13:40.594Z,7.72
2023-01-11T00:16:09.289Z,8.75
2023-01-11T00:18:37.325Z,5.75
2023-01-11T00:21:08.166Z,6.20
2023-01-11T00:23:36.658Z,7.00
2023-01-11T00:26:10.291Z,7.40
2023-01-11T00:28:37.574Z,9.98
2023-01-11T00:31:05.009Z,6.45
2023-01-11T00:33:34.415Z,10.15
2023-01-11T00:36:01.726Z,9.27
2023-01-11T00:38:44.018Z,10.23
2023-01-11T00:41:35.803Z,11.30
2023-01-11T00:44:23.010Z,11.75
2023-01-11T00:47:10.862Z,8.45
2023-01-11T00:49:38.303Z,9.32
2023-01-11T00:52:09.797Z,10.55
2023-01-11T00:54:38.740Z,9.05
2023-01-11T00:57:07.409Z,9.25
2023-01-11T00:59:39.613Z,10.07
2023-01-11T01:02:08.339Z,9.45
2023-01-11T01:04:35.767Z,8.48
2023-01-11T01:07:03.559Z,10.13
2023-01-11T01:09:31.281Z,9.00
2023-01-11T01:11:59.490Z,9.98
2023-01-11T01:14:28.529Z,7.20
2023-01-11T01:17:04.516Z,9.50
2023-01-11T01:19:32.252Z,7.78
2023-01-11T01:22:00.339Z,9.20
2023-01-11T01:24:28.939Z,10.45
2023-01-11T01:27:01.720Z,7.78
2023-01-11T01:29:31.526Z,7.22
2023-01-11T01:31:58.838Z,9.60
2023-01-11T01:34:26.243Z,9.57
2023-01-11T01:36:56.001Z,8.02
2023-01-11T01:39:25.653Z,9.07
2023-01-11T01:41:53.009Z,8.07
2023-01-11T01:44:48.380Z,9.23
2023-01-11T01:47:16.163Z,9.85
2023-01-11T01:49:44.977Z,8.57
2023-01-11T01:52:13.121Z,8.43
2023-01-11T01:54:43.968Z,8.48
2023-01-11T01:57:24.942Z,8.90
2023-01-11T01:59:55.205Z,6.77
2023-01-11T02:02:25.038Z,7.85
2023-01-11T02:04:56.392Z,8.50
2023-01-11T02:07:33.230Z,10.77
2023-01-11T02:10:11.736Z,9.52
2023-01-11T02:12:50.795Z,7.38
2023-01-11T02:15:19.763Z,9.45
2023-01-11T02:17:47.070Z,9.75
2023-01-11T02:20:26.870Z,8.63
2023-01-11T02:23:18.127Z,8.68
2023-01-11T02:26:11.408Z,11.65
2023-01-11T02:29:12.095Z,12.68
2023-01-11T02:31:59.681Z,10.20
2023-01-11T02:34:35.046Z,9.45
2023-01-11T02:37:26.858Z,10.02
2023-01-11T02:40:27.065Z,9.68
2023-01-11T02:43:26.685Z,11.10
2023-01-11T02:46:16.951Z,8.75
2023-01-11T02:48:55.760Z,8.38
2023-01-11T02:51:37.343Z,6.50
2023-01-11T02:54:12.537Z,9.55
2023-01-11T02:56:47.446Z,9.43
2023-01-11T02:59:23.124Z,8.70
2023-01-11T03:01:55.795Z,7.00
2023-01-11T03:04:27.953Z,9.52
2023-01-11T03:07:19.023Z,7.93
2023-01-11T03:10:17.445Z,9.98
2023-01-11T03:13:12.222Z,8.38
2023-01-11T03:16:04.521Z,8.57
2023-01-11T03:18:53.822Z,9.32
2023-01-11T03:21:36.100Z,9.30
2023-01-11T03:24:22.396Z,8.32
2023-01-11T03:27:17.592Z,9.80
2023-01-11T03:30:06.215Z,7.50
2023-01-11T03:32:45.557Z,5.80
2023-01-11T03:35:39.638Z,8.35
2023-01-11T03:38:15.967Z,7.50
2023-01-11T03:40:54.330Z,6.32
2023-01-11T03:43:26.539Z,6.55
2023-01-11T03:45:53.836Z,8.13
2023-01-11T03:48:34.790Z,7.22
2023-01-11T03:51:05.534Z,5.43
2023-01-11T03:53:38.761Z,7.95
2023-01-11T03:56:10.664Z,6.78
2023-01-11T03:58:38.109Z,12.25
2023-01-11T04:01:05.798Z,20.77
2023-01-11T04:03:35.461Z,16.00
2023-01-11T04:06:03.237Z,13.02
2023-01-11T04:08:32.824Z,11.77
2023-01-11T04:11:02.519Z,12.57
2023-01-11T04:13:29.857Z,11.02
2023-01-11T04:15:57.171Z,12.55
2023-01-11T04:18:26.648Z,12.75
2023-01-11T04:20:56.457Z,11.43
2023-01-11T04:23:23.791Z,9.02
2023-01-11T04:25:51.070Z,10.98
2023-01-11T04:28:20.589Z,9.68
2023-01-11T04:30:47.862Z,10.55
2023-01-11T04:33:18.871Z,8.13
2023-01-11T04:35:46.178Z,9.15
2023-01-11T04:38:13.467Z,10.07
2023-01-11T04:40:40.723Z,7.10
2023-01-11T04:43:08.024Z,8.10
2023-01-11T04:45:35.359Z,8.10
2023-01-11T04:48:02.799Z,10.95
2023-01-11T04:50:30.185Z,15.23
2023-01-11T04:53:01.175Z,14.48
2023-01-11T04:55:28.466Z,12.05
2023-01-11T04:57:55.715Z,13.30
2023-01-11T05:00:22.957Z,11.50
2023-01-11T05:02:52.338Z,11.00
2023-01-11T05:05:19.653Z,7.82
2023-01-11T05:07:48.758Z,11.63
2023-01-11T05:10:21.020Z,10.65
2023-01-11T05:12:48.496Z,13.15
2023-01-11T05:15:17.927Z,13.45
2023-01-11T05:17:47.693Z,11.70
2023-01-11T05:20:15.075Z,14.30
2023-01-11T05:22:42.406Z,14.75
2023-01-11T05:25:09.870Z,15.65
2023-01-11T05:27:37.103Z,14.13
2023-01-11T05:30:04.872Z,15.52
2023-01-11T05:32:34.592Z,16.48
2023-01-11T05:35:01.926Z,13.10
2023-01-11T05:37:29.928Z,9.05
2023-01-11T05:39:59.405Z,11.95
2023-01-11T05:42:26.963Z,10.27
2023-01-11T05:45:26.394Z,11.45
2023-01-11T05:47:54.125Z,10.43
2023-01-11T05:50:21.703Z,7.88
2023-01-11T05:52:48.972Z,8.57
2023-01-11T05:55:16.461Z,7.13
2023-01-11T05:57:47.154Z,8.82
2023-01-11T06:00:15.139Z,6.93
2023-01-11T06:02:44.669Z,10.07
2023-01-11T06:05:14.383Z,8.15
2023-01-11T06:07:43.885Z,7.88
2023-01-11T06:10:13.423Z,6.40
2023-01-11T06:12:43.198Z,8.80
2023-01-11T06:15:12.904Z,10.23
2023-01-11T06:17:42.648Z,12.82
2023-01-11T06:20:10.743Z,8.55
2023-01-11T06:22:40.602Z,9.05
2023-01-11T06:25:08.165Z,9.13
2023-01-11T06:27:35.433Z,8.27
2023-01-11T06:30:05.044Z,7.90
2023-01-11T06:32:34.790Z,10.00
2023-01-11T06:35:04.925Z,10.95
2023-01-11T06:37:32.210Z,7.97
2023-01-11T06:40:01.639Z,8.90
2023-01-11T06:42:28.923Z,11.57
2023-01-11T06:44:56.230Z,8.65
2023-01-11T06:47:25.815Z,8.38
2023-01-11T06:49:55.792Z,8.45
2023-01-11T06:52:25.434Z,8.35
2023-01-11T06:54:55.117Z,10.20
2023-01-11T06:57:22.407Z,8.82
2023-01-11T06:59:49.708Z,10.55
2023-01-11T07:02:17.279Z,8.25
2023-01-11T07:04:49.408Z,9.07
2023-01-11T07:07:16.797Z,9.88
2023-01-11T07:09:44.364Z,9.48
2023-01-11T07:12:11.609Z,10.18
2023-01-11T07:14:43.614Z,14.35
2023-01-11T07:17:11.083Z,10.20
2023-01-11T07:19:39.894Z,10.25
2023-01-11T07:22:07.232Z,12.15
2023-01-11T07:24:34.885Z,18.25
2023-01-11T07:27:03.145Z,11.68
2023-01-11T07:29:32.730Z,10.27
2023-01-11T07:32:00.131Z,10.57
2023-01-11T07:34:27.371Z,12.65
2023-01-11T07:36:54.634Z,13.98
2023-01-11T07:39:26.814Z,12.95
2023-01-11T07:42:17.893Z,12.38
2023-01-11T07:44:45.696Z,11.65
2023-01-11T07:47:15.293Z,11.73
2023-01-11T07:49:42.565Z,12.73
2023-01-11T07:52:09.895Z,9.63
2023-01-11T07:54:37.221Z,10.52
2023-01-11T07:57:04.532Z,10.63
2023-01-11T07:59:31.819Z,11.07
2023-01-11T08:01:59.064Z,14.13
2023-01-11T08:04:26.482Z,9.27
2023-01-11T08:06:53.751Z,12.07
2023-01-11T08:09:23.231Z,12.98
2023-01-11T08:12:09.170Z,10.18
2023-01-11T08:14:42.054Z,11.27
2023-01-11T08:17:14.922Z,10.13
2023-01-11T08:19:43.058Z,12.98
2023-01-11T08:22:10.555Z,10.95
2023-01-11T08:24:38.036Z,9.98
2023-01-11T08:27:05.469Z,9.40
2023-01-11T08:29:32.864Z,9.57
2023-01-11T08:32:00.666Z,13.30
2023-01-11T08:34:29.079Z,10.18
2023-01-11T08:36:57.655Z,10.48
2023-01-11T08:39:31.221Z,11.63
2023-01-11T08:42:03.179Z,14.50
2023-01-11T08:44:34.526Z,10.88
2023-01-11T08:47:03.633Z,10.95
2023-01-11T08:49:31.000Z,8.35
2023-01-11T08:51:58.351Z,8.63
2023-01-11T08:54:25.866Z,7.78
2023-01-11T08:56:53.216Z,8.07
2023-01-11T08:59:23.126Z,10.73
2023-01-11T09:01:50.482Z,7.80
2023-01-11T09:04:25.286Z,8.38
2023-01-11T09:06:55.409Z,9.02
2023-01-11T09:09:23.035Z,9.57
2023-01-11T09:11:57.631Z,9.80
2023-01-11T09:14:26.470Z,6.70
2023-01-11T09:16:54.959Z,9.55
2023-01-11T09:19:22.444Z,10.75
2023-01-11T09:21:50.038Z,7.78
2023-01-11T09:24:17.418Z,9.68
2023-01-11T09:26:44.742Z,7.82
2023-01-11T09:29:12.388Z,8.60
2023-01-11T09:35:31.259Z,10.10
2023-01-11T09:38:00.035Z,9.20
2023-01-11T09:40:42.082Z,11.48
2023-01-11T09:43:14.983Z,9.30
2023-01-11T09:45:51.903Z,9.30
2023-01-11T09:48:33.308Z,14.13
2023-01-11T09:51:01.779Z,12.13
2023-01-11T09:53:38.244Z,13.85
2023-01-11T09:56:12.353Z,21.33
2023-01-11T09:59:08.672Z,17.67
2023-01-11T10:01:51.044Z,12.15
2023-01-11T10:04:34.553Z,11.32
2023-01-11T10:07:14.443Z,10.75
2023-01-11T10:18:37.390Z,10.55
2023-01-11T10:19:42.478Z,11.07
2023-01-11T10:22:33.415Z,10.45
2023-01-11T10:25:11.850Z,9.10
2023-01-11T10:27:49.361Z,13.00
2023-01-11T10:30:37.035Z,13.30
2023-01-11T10:34:14.476Z,12.20
2023-01-11T10:37:09.373Z,10.50
2023-01-11T10:40:03.324Z,10.40
2023-01-11T10:42:40.630Z,10.50
2023-01-11T10:45:33.133Z,11.55
2023-01-11T10:48:24.488Z,13.70
2023-01-11T10:51:08.168Z,13.50
2023-01-11T10:53:57.880Z,12.95
2023-01-11T10:57:02.668Z,11.70
2023-01-11T11:00:01.858Z,9.15
2023-01-11T11:02:47.799Z,10.75
2023-01-11T11:05:26.958Z,10.23
2023-01-11T11:08:14.983Z,10.43
2023-01-11T11:11:04.015Z,8.75
2023-01-11T11:14:13.221Z,9.40
2023-01-11T11:16:43.618Z,16.92
2023-01-11T11:19:17.777Z,9.93
2023-01-11T11:21:50.664Z,11.02
2023-01-11T11:24:44.466Z,13.82
2023-01-11T11:27:30.307Z,9.90
2023-01-11T11:29:57.648Z,9.63
2023-01-11T11:32:52.114Z,11.77
2023-01-11T11:35:39.762Z,10.93
2023-01-11T11:38:22.631Z,11.00
2023-01-11T11:41:01.039Z,9.18
2023-01-11T11:43:28.660Z,15.13
2023-01-11T11:45:57.576Z,13.98
2023-01-11T11:48:27.808Z,10.73
2023-01-11T11:50:59.326Z,7.15
2023-01-11T11:53:58.063Z,9.93
2023-01-11T11:56:30.082Z,9.43
2023-01-11T11:58:59.611Z,9.50
2023-01-11T12:01:48.513Z,9.57
2023-01-11T12:04:38.846Z,8.48
2023-01-11T12:07:09.011Z,8.32
2023-01-11T12:09:38.721Z,11.93
2023-01-11T12:12:08.377Z,11.07
2023-01-11T12:14:37.025Z,9.57
2023-01-11T12:17:26.269Z,11.40
2023-01-11T12:19:53.702Z,12.13
2023-01-11T12:22:28.123Z,13.95
2023-01-11T12:25:21.708Z,10.95
2023-01-11T12:28:13.332Z,11.43
2023-01-11T12:31:12.944Z,9.80
2023-01-11T12:33:58.234Z,12.43
2023-01-11T12:36:46.596Z,12.65
2023-01-11T12:39:46.988Z,11.02
2023-01-11T12:42:55.771Z,10.30
2023-01-11T12:45:46.713Z,12.38
2023-01-11T12:48:53.908Z,13.40
2023-01-11T12:51:36.975Z,10.93
2023-01-11T12:54:33.974Z,8.55
2023-01-11T12:57:23.101Z,12.75
2023-01-11T13:00:34.379Z,10.75
2023-01-11T13:03:54.014Z,11.63
2023-01-11T13:06:44.772Z,12.38
2023-01-11T13:09:22.868Z,18.80
2023-01-11T13:11:52.938Z,14.63
2023-01-11T13:15:02.607Z,13.75
2023-01-11T13:17:49.410Z,10.52
2023-01-11T13:21:00.040Z,9.18
2023-01-11T13:23:51.357Z,11.73
2023-01-11T13:26:24.857Z,11.77
2023-01-11T13:29:05.439Z,11.50
2023-01-11T13:31:36.718Z,11.10
2023-01-11T13:34:22.920Z,11.85
2023-01-11T13:36:58.044Z,11.68
2023-01-11T13:39:40.812Z,8.48
2023-01-11T13:42:23.152Z,11.43
2023-01-11T13:45:03.843Z,9.10
2023-01-11T13:47:42.630Z,8.63
2023-01-11T13:50:10.366Z,9.63
2023-01-11T13:53:06.119Z,10.55
2023-01-11T13:56:10.482Z,10.15
2023-01-11T13:58:52.320Z,7.75
2023-01-11T14:01:31.301Z,8.57
2023-01-11T14:04:18.778Z,7.65
2023-01-11T14:06:58.211Z,10.77
2023-01-11T14:09:54.027Z,8.85
2023-01-11T14:12:31.337Z,10.43
2023-01-11T14:15:08.434Z,9.98
2023-01-11T14:17:56.876Z,16.00
2023-01-11T14:20:34.707Z,9.20
2023-01-11T14:23:14.066Z,12.05
2023-01-11T14:25:53.410Z,10.73
2023-01-11T14:28:51.757Z,11.23
2023-01-11T14:31:31.301Z,10.43
2023-01-11T14:34:26.650Z,9.93
2023-01-11T14:37:31.530Z,14.82
2023-01-11T14:40:17.305Z,13.77
2023-01-11T14:43:06.037Z,16.75
2023-01-11T14:45:48.424Z,11.10
2023-01-11T14:48:37.622Z,10.02
2023-01-11T14:51:33.240Z,11.93
2023-01-11T14:54:23.805Z,10.95
2023-01-11T14:56:58.852Z,9.70
2023-01-11T14:59:39.626Z,9.75
2023-01-11T15:02:15.207Z,10.65
2023-01-11T15:04:56.104Z,9.43
2023-01-11T15:07:30.981Z,10.30
2023-01-11T15:10:04.612Z,11.27
2023-01-11T15:12:37.875Z,11.05
2023-01-11T15:15:25.717Z,21.38
2023-01-11T15:18:15.936Z,11.50
2023-01-11T15:21:19.431Z,9.35
2023-01-11T15:23:50.596Z,11.38
2023-01-11T15:26:24.237Z,9.65
2023-01-11T15:29:20.990Z,9.75
2023-01-11T15:32:08.235Z,10.38
2023-01-11T15:34:43.086Z,12.40
2023-01-11T15:37:16.501Z,10.55
2023-01-11T15:40:16.602Z,10.60
2023-01-11T15:42:44.046Z,12.25
2023-01-11T15:45:34.346Z,8.35
2023-01-11T15:48:22.876Z,9.10
2023-01-11T15:51:36.736Z,8.80
2023-01-11T15:54:10.039Z,10.57
2023-01-11T15:56:58.601Z,12.10
2023-01-11T15:59:55.742Z,10.75
2023-01-11T16:02:46.076Z,10.35
2023-01-11T16:05:20.875Z,12.70
2023-01-11T16:07:56.508Z,10.68
2023-01-11T16:10:45.050Z,9.70
2023-01-11T16:14:00.891Z,9.50
2023-01-11T16:16:35.937Z,12.07
2023-01-11T16:19:15.401Z,23.85
2023-01-11T16:21:45.327Z,20.02
2023-01-11T16:24:22.157Z,13.88
2023-01-11T16:27:03.164Z,9.32
2023-01-11T16:29:36.286Z,9.00
2023-01-11T16:32:06.726Z,9.32
2023-01-11T16:34:43.327Z,8.85
2023-01-11T16:37:28.821Z,8.15
2023-01-11T16:40:16.111Z,10.45
2023-01-11T16:42:55.472Z,11.55
2023-01-11T16:45:39.745Z,11.40
2023-01-11T16:48:18.453Z,8.43
2023-01-11T16:51:06.976Z,9.02
2023-01-11T16:53:47.055Z,13.63
2023-01-11T16:56:21.454Z,9.13
2023-01-11T16:59:07.610Z,11.02
2023-01-11T17:01:58.743Z,9.60
2023-01-11T17:04:31.141Z,9.10
2023-01-11T17:07:27.746Z,8.85
2023-01-11T17:10:16.703Z,7.63
2023-01-11T17:12:47.241Z,9.40
2023-01-11T17:15:29.740Z,9.43
2023-01-11T17:18:03.975Z,8.75
2023-01-11T17:20:32.389Z,8.45
2023-01-11T17:23:00.134Z,6.60
2023-01-11T17:25:43.793Z,8.88
2023-01-11T17:28:19.894Z,6.72
2023-01-11T17:30:53.389Z,8.35
2023-01-11T17:33:32.372Z,6.75
2023-01-11T17:36:01.136Z,7.22
2023-01-11T17:38:29.939Z,7.32
2023-01-11T17:41:01.387Z,10.20
2023-01-11T17:43:48.814Z,12.18
2023-01-11T17:46:20.666Z,8.18
2023-01-11T17:51:29.581Z,7.70
2023-01-11T17:53:57.100Z,9.02
2023-01-11T17:56:59.076Z,10.95
2023-01-11T17:59:28.146Z,18.73
2023-01-11T18:01:58.191Z,31.65
2023-01-11T18:04:27.559Z,37.67
2023-01-11T18:07:04.519Z,32.83
2023-01-11T18:09:45.862Z,27.40
2023-01-11T18:12:25.523Z,22.55
2023-01-11T18:14:58.190Z,17.23
2023-01-11T18:17:30.692Z,16.33
2023-01-11T18:20:21.443Z,13.15
2023-01-11T18:23:12.103Z,13.18
2023-01-11T18:25:40.953Z,14.13
2023-01-11T18:28:27.698Z,14.73
2023-01-11T18:30:59.226Z,12.32
2023-01-11T18:33:33.139Z,14.60
2023-01-11T18:36:04.552Z,12.38
2023-01-11T18:38:34.832Z,14.23
2023-01-11T18:41:37.754Z,14.30
2023-01-11T18:44:05.254Z,12.25
2023-01-11T18:46:38.427Z,13.80
2023-01-11T18:49:11.640Z,13.32
2023-01-11T18:51:45.380Z,12.70
2023-01-11T18:54:16.501Z,14.48
2023-01-11T18:56:46.237Z,13.32
2023-01-11T18:59:13.640Z,11.07
2023-01-11T19:01:54.316Z,11.02
2023-01-11T19:04:27.308Z,13.57
2023-01-11T19:06:54.779Z,14.23
2023-01-11T19:09:25.611Z,14.13
2023-01-11T19:11:53.016Z,16.10
2023-01-11T19:14:20.496Z,14.10
2023-01-11T19:16:47.985Z,14.95
2023-01-11T19:19:15.476Z,13.30
2023-01-11T19:21:46.177Z,15.43
2023-01-11T19:24:13.726Z,14.20
2023-01-11T19:26:43.783Z,13.50
2023-01-11T19:29:21.615Z,12.75
2023-01-11T19:31:50.014Z,13.98
2023-01-11T19:34:17.559Z,13.63
2023-01-11T19:36:45.420Z,13.20
2023-01-11T19:39:15.288Z,12.45
2023-01-11T19:42:02.031Z,12.52
2023-01-11T19:44:34.792Z,13.48
2023-01-11T19:47:11.875Z,11.80
2023-01-11T19:49:41.368Z,14.23
2023-01-11T19:52:22.061Z,11.88
2023-01-11T19:54:49.513Z,13.10
2023-01-11T19:57:26.537Z,13.20
2023-01-11T19:59:56.283Z,12.23
2023-01-11T20:02:24.591Z,13.52
2023-01-11T20:04:54.387Z,11.27
2023-01-11T20:07:21.764Z,13.18
2023-01-11T20:09:49.620Z,12.27
2023-01-11T20:12:17.048Z,14.93
2023-01-11T20:14:46.726Z,13.73
2023-01-11T20:17:21.006Z,14.20
2023-01-11T20:19:54.682Z,16.13
2023-01-11T20:22:24.029Z,16.38
2023-01-11T20:24:53.906Z,18.85
2023-01-11T20:27:21.668Z,22.45
2023-01-11T20:29:51.466Z,27.50
2023-01-11T20:32:40.791Z,23.55
2023-01-11T20:35:09.072Z,28.60
2023-01-11T20:37:36.451Z,24.33
2023-01-11T20:40:04.069Z,17.45
2023-01-11T20:42:32.202Z,16.80
2023-01-11T20:44:59.768Z,15.77
2023-01-11T20:47:27.304Z,18.10
2023-01-11T20:49:54.814Z,14.45
2023-01-11T20:52:24.425Z,22.90
2023-01-11T20:54:55.073Z,17.17
2023-01-11T20:57:22.714Z,15.50
2023-01-11T20:59:54.670Z,16.95
2023-01-11T21:02:24.512Z,15.35
2023-01-11T21:04:54.722Z,13.85
2023-01-11T21:07:22.113Z,12.10
2023-01-11T21:09:49.699Z,6.13
2023-01-11T21:12:19.987Z,5.88
2023-01-11T21:14:47.287Z,7.55
2023-01-11T21:17:14.643Z,4.38
2023-01-11T21:19:43.805Z,4.47
2023-01-11T21:22:11.222Z,3.08
2023-01-11T21:24:40.920Z,3.17
2023-01-11T21:27:08.573Z,3.47
2023-01-11T21:29:36.145Z,2.70
2023-01-11T21:32:03.534Z,3.50
2023-01-11T21:34:30.943Z,3.00
2023-01-11T21:36:58.257Z,2.50
2023-01-11T21:39:27.970Z,2.08
2023-01-11T21:41:55.299Z,3.08
2023-01-11T21:44:27.402Z,1.60
2023-01-11T21:46:57.169Z,1.70
2023-01-11T21:49:26.936Z,2.47
2023-01-11T21:51:56.874Z,2.20
2023-01-11T21:54:27.098Z,2.20
2023-01-11T21:56:54.605Z,2.70
2023-01-11T21:59:22.548Z,1.60
2023-01-11T22:01:50.247Z,3.88
2023-01-11T22:04:19.575Z,2.15
2023-01-11T22:06:51.614Z,2.55
2023-01-11T22:09:21.894Z,2.13
2023-01-11T22:11:51.066Z,3.65
2023-01-11T22:14:18.554Z,1.92
2023-01-11T22:16:46.050Z,2.28
2023-01-11T22:19:14.445Z,1.70
2023-01-11T22:21:44.107Z,2.72
2023-01-11T22:24:14.236Z,1.67
2023-01-11T22:26:45.091Z,1.73
2023-01-11T22:29:12.792Z,2.60
2023-01-11T22:31:52.736Z,2.67
2023-01-11T22:34:20.400Z,1.75
2023-01-11T22:36:48.326Z,1.67
2023-01-11T22:39:19.674Z,1.80
2023-01-11T22:41:48.633Z,2.17
2023-01-11T22:44:19.452Z,1.70
2023-01-11T22:46:47.270Z,3.10
2023-01-11T22:49:15.445Z,4.07
2023-01-11T22:51:48.416Z,3.53
2023-01-11T22:54:15.983Z,2.83
2023-01-11T22:56:44.843Z,2.95
2023-01-11T22:59:12.195Z,3.47
2023-01-11T23:01:41.438Z,2.47
2023-01-11T23:04:12.623Z,2.35
2023-01-11T23:06:42.602Z,1.92
2023-01-11T23:09:16.237Z,2.67
2023-01-11T23:12:03.620Z,2.63
2023-01-11T23:14:33.121Z,1.92
2023-01-11T23:17:06.917Z,3.15
2023-01-11T23:19:39.983Z,2.83
2023-01-11T23:22:08.520Z,2.80
2023-01-11T23:24:37.164Z,3.15
2023-01-11T23:27:04.900Z,4.00
2023-01-11T23:29:37.199Z,3.17
2023-01-11T23:32:04.822Z,2.05
2023-01-11T23:34:32.201Z,2.42
2023-01-11T23:36:59.610Z,3.33
2023-01-11T23:39:27.028Z,2.95
2023-01-11T23:42:14.970Z,2.83
2023-01-11T23:44:42.341Z,4.07
2023-01-11T23:47:22.082Z,2.72
2023-01-11T23:49:51.652Z,2.72
2023-01-11T23:52:21.044Z,3.78
2023-01-11T23:54:48.449Z,4.78
2023-01-11T23:57:16.436Z,3.55
2023-01-11T23:59:48.735Z,1.83
